BOS weather

General Edward Lawrence Logan International Airport
Boston, Massachusetts, United States

Public forecast

Using degrees Fahrenheit for public forecast. Weather courtesy of forecast.io.

Current aviation weather report (METAR) for General Edward Lawrence Logan International Airport

Retrieved 2019/10/17 04:54 UTC (17 minutes ago):

KBOS 170454Z 08034G44KT 1 1/2SM +RA BR BKN008 BKN013 OVC026 15/13 A2921 RMK AO2 PK WND 09044/0447 PRESFR SLP892 P0033 T01500128 401720078

Aviation forecast (TAF) for General Edward Lawrence Logan International Airport

Retrieved 2019-10-17 00:23 UTC (5 hours ago):

TAF KBOS 162320Z 1700/1806 10016G24KT P6SM VCSH OVC015 FM170200 10021G37KT 3SM -RA BR OVC010 FM170500 09031G45KT 1 1/2SM +RA BR OVC008 WS020/11065KT FM171000 12024G38KT P6SM VCSH OVC010 WS020/22030KT FM171100 24023G37KT P6SM VCSH BKN020 FM180000 27020G33KT P6SM BKN040